createdAt,value
2023-03-02T00:00:11.649Z,101674.19
2023-03-02T00:00:35.946Z,101672.44
2023-03-02T00:01:03.643Z,101677.69
2023-03-02T00:01:31.106Z,101680.34
2023-03-02T00:01:56.435Z,101680.31
2023-03-02T00:02:22.243Z,101669.78
2023-03-02T00:02:46.379Z,101674.19
2023-03-02T00:03:10.434Z,101667.16
2023-03-02T00:03:33.385Z,101673.31
2023-03-02T00:03:59.952Z,101683.00
2023-03-02T00:04:25.688Z,101675.94
2023-03-02T00:04:52.082Z,101678.56
2023-03-02T00:05:14.479Z,101683.00
2023-03-02T00:05:37.883Z,101679.47
2023-03-02T00:06:00.938Z,101684.72
2023-03-02T00:06:22.531Z,101682.09
2023-03-02T00:06:44.288Z,101682.97
2023-03-02T00:07:10.171Z,101681.22
2023-03-02T00:07:35.649Z,101678.59
2023-03-02T00:08:00.244Z,101686.47
2023-03-02T00:08:24.094Z,101684.75
2023-03-02T00:08:47.134Z,101682.09
2023-03-02T00:09:09.859Z,101684.72
2023-03-02T00:09:33.728Z,101679.47
2023-03-02T00:09:55.453Z,101682.09
2023-03-02T00:10:17.152Z,101685.59
2023-03-02T00:10:38.835Z,101684.72
2023-03-02T00:11:02.324Z,101683.84
2023-03-02T00:11:23.948Z,101687.38
2023-03-02T00:11:45.844Z,101686.50
2023-03-02T00:12:08.270Z,101682.13
2023-03-02T00:12:36.159Z,101688.25
2023-03-02T00:13:00.417Z,101689.13
2023-03-02T00:13:22.394Z,101680.31
2023-03-02T00:13:44.232Z,101685.63
2023-03-02T00:14:06.078Z,101683.84
2023-03-02T00:14:28.726Z,101686.50
2023-03-02T00:14:50.354Z,101674.19
2023-03-02T00:15:12.063Z,101686.50
2023-03-02T00:15:34.318Z,101688.28
2023-03-02T00:15:57.015Z,101682.13
2023-03-02T00:16:18.761Z,101686.50
2023-03-02T00:16:40.796Z,101680.34
2023-03-02T00:17:02.704Z,101685.63
2023-03-02T00:17:30.198Z,101692.66
2023-03-02T00:17:53.324Z,101686.50
2023-03-02T00:18:16.341Z,101679.47
2023-03-02T00:18:38.013Z,101684.75
2023-03-02T00:18:59.763Z,101691.78
2023-03-02T00:19:21.542Z,101652.19
2023-03-02T00:19:44.799Z,101683.88
2023-03-02T00:20:10.034Z,101687.38
2023-03-02T00:20:31.860Z,101683.84
2023-03-02T00:20:53.766Z,101668.00
2023-03-02T00:21:15.532Z,101682.13
2023-03-02T00:21:38.111Z,101685.63
2023-03-02T00:21:59.710Z,101690.03
2023-03-02T00:22:22.702Z,101691.81
2023-03-02T00:22:45.848Z,101688.28
2023-03-02T00:23:07.453Z,101688.28
2023-03-02T00:23:30.685Z,101690.03
2023-03-02T00:23:52.778Z,101690.03
2023-03-02T00:24:15.527Z,101682.09
2023-03-02T00:24:37.418Z,101687.38
2023-03-02T00:24:59.955Z,101665.38
2023-03-02T00:25:21.661Z,101695.28
2023-03-02T00:25:43.282Z,101683.00
2023-03-02T00:26:05.709Z,101687.38
2023-03-02T00:26:27.917Z,101693.56
2023-03-02T00:26:50.614Z,101696.16
2023-03-02T00:27:12.521Z,101682.97
2023-03-02T00:27:37.113Z,101697.06
2023-03-02T00:27:58.747Z,101689.13
2023-03-02T00:28:20.385Z,101690.03
2023-03-02T00:28:41.962Z,101698.81
2023-03-02T00:29:05.054Z,101697.91
2023-03-02T00:29:26.667Z,101687.38
2023-03-02T00:29:48.464Z,101687.38
2023-03-02T00:30:12.102Z,101676.81
2023-03-02T00:30:33.859Z,101698.78
2023-03-02T00:30:56.546Z,101694.41
2023-03-02T00:31:18.464Z,101697.94
2023-03-02T00:31:40.353Z,101691.75
2023-03-02T00:32:03.764Z,101691.75
2023-03-02T00:32:26.800Z,101700.56
2023-03-02T00:32:49.564Z,101689.16
2023-03-02T00:33:11.203Z,101695.28
2023-03-02T00:33:33.178Z,101687.38
2023-03-02T00:33:54.888Z,101690.91
2023-03-02T00:34:17.746Z,101695.28
2023-03-02T00:34:39.430Z,101695.28
2023-03-02T00:35:01.144Z,101688.25
2023-03-02T00:35:23.672Z,101689.13
2023-03-02T00:35:45.332Z,101693.53
2023-03-02T00:36:15.989Z,101689.16
2023-03-02T00:36:37.849Z,101689.16
2023-03-02T00:36:59.602Z,101684.75
2023-03-02T00:37:22.559Z,101683.84
2023-03-02T00:37:45.092Z,101684.72
2023-03-02T00:38:08.239Z,101669.78
2023-03-02T00:38:30.231Z,101693.50
2023-03-02T00:38:52.277Z,101685.63
2023-03-02T00:39:14.283Z,101690.91
2023-03-02T00:39:36.875Z,101683.84
2023-03-02T00:39:58.441Z,101686.50
2023-03-02T00:40:20.112Z,101685.63
2023-03-02T00:40:45.733Z,101688.25
2023-03-02T00:41:08.476Z,101686.47
2023-03-02T00:41:30.345Z,101683.00
2023-03-02T00:41:51.988Z,101690.03
2023-03-02T00:42:13.893Z,101683.00
2023-03-02T00:42:37.322Z,101683.88
2023-03-02T00:42:58.914Z,101682.09
2023-03-02T00:43:22.801Z,101689.97
2023-03-02T00:43:44.642Z,101683.84
2023-03-02T00:44:07.194Z,101682.97
2023-03-02T00:44:28.836Z,101690.88
2023-03-02T00:44:52.478Z,101690.00
2023-03-02T00:45:14.229Z,101689.13
2023-03-02T00:45:35.837Z,101691.75
2023-03-02T00:45:59.001Z,101690.03
2023-03-02T00:46:24.334Z,101685.59
2023-03-02T00:46:46.382Z,101692.66
2023-03-02T00:47:08.015Z,101684.75
2023-03-02T00:47:30.790Z,101689.13
2023-03-02T00:47:52.457Z,101685.63
2023-03-02T00:48:24.686Z,101678.59
2023-03-02T00:48:46.689Z,101686.50
2023-03-02T00:49:08.866Z,101682.09
2023-03-02T00:49:31.419Z,101681.22
2023-03-02T00:49:53.035Z,101680.34
2023-03-02T00:50:14.636Z,101680.34
2023-03-02T00:50:40.826Z,101681.22
2023-03-02T00:51:03.384Z,101685.59
2023-03-02T00:51:25.135Z,101679.47
2023-03-02T00:51:46.956Z,101667.16
2023-03-02T00:52:08.644Z,101681.22
2023-03-02T00:52:32.761Z,101679.44
2023-03-02T00:52:54.430Z,101682.06
2023-03-02T00:53:16.234Z,101687.38
2023-03-02T00:53:38.862Z,101670.66
2023-03-02T00:54:02.908Z,101674.16
2023-03-02T00:54:25.564Z,101682.09
2023-03-02T00:54:47.172Z,101686.47
2023-03-02T00:55:10.234Z,101678.56
2023-03-02T00:55:31.950Z,101682.97
2023-03-02T00:55:54.506Z,101677.69
2023-03-02T00:56:17.934Z,101677.69
2023-03-02T00:56:43.725Z,101676.78
2023-03-02T00:57:05.309Z,101680.34
2023-03-02T00:57:26.993Z,101685.63
2023-03-02T00:57:55.117Z,101669.78
2023-03-02T00:58:22.259Z,101682.06
2023-03-02T00:58:43.818Z,101679.44
2023-03-02T00:59:06.077Z,101688.25
2023-03-02T00:59:29.270Z,101649.53
2023-03-02T01:00:00.471Z,101684.72
2023-03-02T01:00:28.368Z,101677.69
2023-03-02T01:00:53.494Z,101679.44
2023-03-02T01:01:18.273Z,101683.81
2023-03-02T01:01:43.048Z,101669.75
2023-03-02T01:02:05.504Z,101670.66
2023-03-02T01:02:28.980Z,101684.69
2023-03-02T01:02:51.147Z,101682.94
2023-03-02T01:03:12.803Z,101682.06
2023-03-02T01:03:34.847Z,101682.06
2023-03-02T01:03:56.519Z,101682.94
2023-03-02T01:04:19.391Z,101681.19
2023-03-02T01:04:43.551Z,101668.84
2023-03-02T01:05:05.824Z,101680.28
2023-03-02T01:05:28.353Z,101673.25
2023-03-02T01:05:55.257Z,101671.50
2023-03-02T01:06:20.851Z,101667.97
2023-03-02T01:06:47.106Z,101668.84
2023-03-02T01:07:11.719Z,101680.28
2023-03-02T01:07:34.664Z,101673.25
2023-03-02T01:07:57.266Z,101680.31
2023-03-02T01:08:18.909Z,101668.84
2023-03-02T01:08:40.532Z,101672.38
2023-03-02T01:09:02.173Z,101672.38
2023-03-02T01:09:25.017Z,101667.09
2023-03-02T01:09:48.401Z,101668.84
2023-03-02T01:10:11.589Z,101671.50
2023-03-02T01:10:34.221Z,101673.25
2023-03-02T01:10:56.929Z,101675.88
2023-03-02T01:11:21.688Z,101646.84
2023-03-02T01:11:43.406Z,101674.97
2023-03-02T01:12:09.254Z,101670.56
2023-03-02T01:12:33.136Z,101668.81
2023-03-02T01:12:54.856Z,101664.41
2023-03-02T01:13:17.686Z,101672.31
2023-03-02T01:13:39.319Z,101670.56
2023-03-02T01:14:01.862Z,101648.59
2023-03-02T01:14:24.661Z,101665.31
2023-03-02T01:14:48.637Z,101664.41
2023-03-02T01:15:11.146Z,101665.28
2023-03-02T01:15:34.363Z,101666.19
2023-03-02T01:16:02.678Z,101660.91
2023-03-02T01:16:24.457Z,101670.53
2023-03-02T01:16:47.229Z,101660.88
2023-03-02T01:17:10.755Z,101657.38
2023-03-02T01:17:34.273Z,101661.78
2023-03-02T01:17:56.356Z,101652.97
2023-03-02T01:18:17.932Z,101664.41
2023-03-02T01:18:40.660Z,101659.09
2023-03-02T01:19:02.709Z,101649.44
2023-03-02T01:19:24.310Z,101652.94
2023-03-02T01:19:46.375Z,101660.00
2023-03-02T01:20:19.937Z,101660.88
2023-03-02T01:20:41.671Z,101653.84
2023-03-02T01:21:05.344Z,101655.56
2023-03-02T01:21:26.964Z,101660.88
2023-03-02T01:21:51.057Z,101658.25
2023-03-02T01:22:12.717Z,101657.34
2023-03-02T01:22:35.643Z,101650.31
2023-03-02T01:22:57.443Z,101652.06
2023-03-02T01:23:19.131Z,101653.84
2023-03-02T01:23:42.081Z,101652.09
2023-03-02T01:24:04.445Z,101653.84
2023-03-02T01:24:26.318Z,101656.50
2023-03-02T01:24:48.033Z,101652.09
2023-03-02T01:25:11.765Z,101652.06
2023-03-02T01:25:34.810Z,101656.47
2023-03-02T01:25:56.469Z,101646.81
2023-03-02T01:26:18.081Z,101632.72
2023-03-02T01:26:39.710Z,101652.94
2023-03-02T01:27:02.381Z,101653.84
2023-03-02T01:27:24.095Z,101653.84
2023-03-02T01:27:46.149Z,101646.81
2023-03-02T01:28:07.703Z,101654.72
2023-03-02T01:28:30.340Z,101653.84
2023-03-02T01:28:55.385Z,101655.59
2023-03-02T01:29:17.148Z,101648.56
2023-03-02T01:29:39.778Z,101645.91
2023-03-02T01:30:01.494Z,101653.84
2023-03-02T01:30:23.176Z,101642.44
2023-03-02T01:30:44.775Z,101656.47
2023-03-02T01:31:06.492Z,101652.97
2023-03-02T01:31:30.381Z,101644.19
2023-03-02T01:31:52.293Z,101655.63
2023-03-02T01:32:14.055Z,101653.84
2023-03-02T01:32:35.955Z,101645.97
2023-03-02T01:32:58.596Z,101651.22
2023-03-02T01:33:21.318Z,101648.59
2023-03-02T01:33:42.963Z,101648.56
2023-03-02T01:34:04.646Z,101637.16
2023-03-02T01:34:27.243Z,101645.94
2023-03-02T01:34:48.906Z,101644.16
2023-03-02T01:35:10.597Z,101641.53
2023-03-02T01:35:32.371Z,101644.16
2023-03-02T01:35:54.311Z,101638.00
2023-03-02T01:36:17.227Z,101611.63
2023-03-02T01:36:38.886Z,101642.44
2023-03-02T01:37:00.770Z,101645.03
2023-03-02T01:37:22.931Z,101636.28
2023-03-02T01:37:46.878Z,101639.78
2023-03-02T01:38:09.901Z,101639.78
2023-03-02T01:38:32.023Z,101636.25
2023-03-02T01:38:54.218Z,101625.72
2023-03-02T01:39:16.198Z,101631.88
2023-03-02T01:40:22.279Z,101635.38
2023-03-02T01:40:43.913Z,101636.25
2023-03-02T01:41:05.701Z,101623.94
2023-03-02T01:41:28.450Z,101629.19
2023-03-02T01:41:52.127Z,101630.09
2023-03-02T01:42:16.271Z,101624.81
2023-03-02T01:42:39.581Z,101619.53
2023-03-02T01:43:04.577Z,101629.22
2023-03-02T01:43:29.226Z,101628.31
2023-03-02T01:43:50.992Z,101630.06
2023-03-02T01:44:35.607Z,101623.94
2023-03-02T01:44:59.449Z,101626.53
2023-03-02T01:45:46.234Z,101628.31
2023-03-02T01:46:15.420Z,101620.41
2023-03-02T01:46:41.641Z,101630.06
2023-03-02T01:47:06.028Z,101625.66
2023-03-02T01:47:32.801Z,101621.28
2023-03-02T01:48:00.710Z,101620.41
2023-03-02T01:48:27.853Z,101585.22
2023-03-02T01:48:53.880Z,101597.53
2023-03-02T01:49:23.866Z,101614.25
2023-03-02T01:49:55.443Z,101619.53
2023-03-02T01:50:21.336Z,101613.34
2023-03-02T01:50:45.165Z,101615.13
2023-03-02T01:51:08.786Z,101620.38
2023-03-02T01:51:36.284Z,101613.34
2023-03-02T01:51:58.028Z,101615.13
2023-03-02T01:52:20.989Z,101612.47
2023-03-02T01:52:44.082Z,101618.63
2023-03-02T01:53:07.514Z,101615.09
2023-03-02T01:53:32.053Z,101597.50
2023-03-02T01:53:59.414Z,101623.91
2023-03-02T01:54:23.381Z,101617.75
2023-03-02T01:54:50.490Z,101612.44
2023-03-02T01:55:17.102Z,101610.72
2023-03-02T01:55:39.675Z,101615.97
2023-03-02T01:56:07.152Z,101613.34
2023-03-02T01:56:31.668Z,101607.16
2023-03-02T01:56:58.155Z,101617.72
2023-03-02T01:57:25.931Z,101608.06
2023-03-02T01:57:50.234Z,101617.72
2023-03-02T01:58:13.466Z,101611.56
2023-03-02T01:58:37.010Z,101609.81
2023-03-02T01:59:03.294Z,101623.84
2023-03-02T01:59:27.855Z,101601.84
2023-03-02T01:59:54.606Z,101618.56
2023-03-02T02:00:24.048Z,101621.19
2023-03-02T02:00:46.447Z,101619.47
2023-03-02T02:01:15.648Z,101607.16
2023-03-02T02:01:42.427Z,101618.56
2023-03-02T02:02:09.049Z,101615.03
2023-03-02T02:02:30.746Z,101608.00
2023-03-02T02:02:54.748Z,101615.03
2023-03-02T02:03:24.512Z,101616.81
2023-03-02T02:03:50.023Z,101606.22
2023-03-02T02:04:12.937Z,101615.03
2023-03-02T02:04:39.910Z,101615.03
2023-03-02T02:05:05.872Z,101610.63
2023-03-02T02:05:28.376Z,101606.25
2023-03-02T02:06:00.135Z,101614.16
2023-03-02T02:06:25.678Z,101609.78
2023-03-02T02:06:54.020Z,101601.84
2023-03-02T02:07:16.138Z,101611.53
2023-03-02T02:07:38.653Z,101614.16
2023-03-02T02:08:01.543Z,101613.28
2023-03-02T02:08:25.429Z,101607.13
2023-03-02T02:08:48.735Z,101600.97
2023-03-02T02:09:14.244Z,101606.25
2023-03-02T02:09:41.178Z,101604.47
2023-03-02T02:10:03.779Z,101607.13
2023-03-02T02:10:25.668Z,101612.38
2023-03-02T02:10:47.421Z,101606.22
2023-03-02T02:11:10.105Z,101602.75
2023-03-02T02:11:31.695Z,101615.03
2023-03-02T02:11:53.359Z,101615.88
2023-03-02T02:12:16.553Z,101606.22
2023-03-02T02:12:39.138Z,101612.38
2023-03-02T02:13:01.532Z,101611.50
2023-03-02T02:13:23.369Z,101605.34
2023-03-02T02:13:45.504Z,101606.25
2023-03-02T02:14:07.521Z,101607.13
2023-03-02T02:14:30.209Z,101601.00
2023-03-02T02:14:53.947Z,101605.38
2023-03-02T02:15:15.581Z,101607.13
2023-03-02T02:15:38.865Z,101605.38
2023-03-02T02:16:01.784Z,101588.69
2023-03-02T02:16:23.763Z,101609.75
2023-03-02T02:16:45.602Z,101606.25
2023-03-02T02:17:08.953Z,101608.03
2023-03-02T02:17:31.360Z,101616.81
2023-03-02T02:17:54.356Z,101615.03
2023-03-02T02:18:17.022Z,101616.78
2023-03-02T02:18:41.026Z,101607.13
2023-03-02T02:19:06.540Z,101615.88
2023-03-02T02:19:40.017Z,101607.09
2023-03-02T02:20:19.506Z,101606.22
2023-03-02T02:20:45.211Z,101616.78
2023-03-02T02:21:07.909Z,101610.63
2023-03-02T02:21:30.551Z,101601.81
2023-03-02T02:21:52.284Z,101601.81
2023-03-02T02:22:22.400Z,101608.84
2023-03-02T02:22:56.454Z,101602.72
2023-03-02T02:23:27.983Z,101611.50
2023-03-02T02:24:00.894Z,101599.16
2023-03-02T02:24:30.089Z,101586.88
2023-03-02T02:24:57.222Z,101608.84
2023-03-02T02:25:33.397Z,101604.44
2023-03-02T02:26:12.820Z,101601.78
2023-03-02T02:26:38.552Z,101613.22
2023-03-02T02:27:01.688Z,101607.06
2023-03-02T02:27:33.705Z,101605.34
2023-03-02T02:27:57.161Z,101612.34
2023-03-02T02:28:24.068Z,101612.34
2023-03-02T02:28:58.573Z,101602.66
2023-03-02T02:29:26.736Z,101608.81
2023-03-02T02:29:52.447Z,101607.06
2023-03-02T02:30:17.353Z,101603.56
2023-03-02T02:30:40.613Z,101607.06
2023-03-02T02:31:10.844Z,101609.69
2023-03-02T02:31:38.637Z,101613.19
2023-03-02T02:32:06.617Z,101591.25
2023-03-02T02:32:32.442Z,101601.81
2023-03-02T02:32:56.774Z,101606.19
2023-03-02T02:33:22.093Z,101600.03
2023-03-02T02:33:48.316Z,101598.28
2023-03-02T02:34:14.161Z,101607.06
2023-03-02T02:34:40.510Z,101601.78
2023-03-02T02:35:05.567Z,101570.09
2023-03-02T02:35:31.240Z,101598.25
2023-03-02T02:36:02.061Z,101598.22
2023-03-02T02:36:33.353Z,101581.50
2023-03-02T02:37:04.561Z,101607.00
2023-03-02T02:37:30.904Z,101603.50
2023-03-02T02:37:57.245Z,101605.28
2023-03-02T02:38:21.929Z,101599.97
2023-03-02T02:38:48.148Z,101606.13
2023-03-02T02:39:19.446Z,101599.09
2023-03-02T02:39:45.838Z,101597.31
2023-03-02T02:40:15.384Z,101599.09
2023-03-02T02:40:46.114Z,101606.09
2023-03-02T02:41:16.560Z,101606.97
2023-03-02T02:41:40.024Z,101603.47
2023-03-02T02:42:05.977Z,101600.81
2023-03-02T02:42:31.725Z,101596.47
2023-03-02T02:42:54.318Z,101592.97
2023-03-02T02:43:19.169Z,101596.47
2023-03-02T02:43:42.140Z,101599.13
2023-03-02T02:44:05.685Z,101591.22
2023-03-02T02:44:27.934Z,101592.06
2023-03-02T02:44:50.377Z,101599.13
2023-03-02T02:45:20.623Z,101592.94
2023-03-02T02:45:42.503Z,101596.50
2023-03-02T02:46:05.462Z,101587.72
2023-03-02T02:46:29.286Z,101592.09
2023-03-02T02:46:51.177Z,101592.09
2023-03-02T02:47:17.374Z,101589.50
2023-03-02T02:47:40.014Z,101588.59
2023-03-02T02:48:02.463Z,101591.25
2023-03-02T02:48:26.957Z,101594.75
2023-03-02T02:48:48.822Z,101592.16
2023-03-02T02:49:22.436Z,101583.34
2023-03-02T02:49:44.842Z,101599.19
2023-03-02T02:50:16.791Z,101592.16
2023-03-02T02:50:38.562Z,101578.97
2023-03-02T02:51:02.949Z,101597.44
2023-03-02T02:51:28.683Z,101600.94
2023-03-02T02:51:50.597Z,101600.94
2023-03-02T02:52:16.813Z,101600.06
2023-03-02T02:52:41.562Z,101588.63
2023-03-02T02:53:07.142Z,101596.56
2023-03-02T02:53:42.802Z,101595.66
2023-03-02T02:54:04.710Z,101586.84
2023-03-02T02:54:32.292Z,101599.16
2023-03-02T02:54:56.275Z,101592.13
2023-03-02T02:55:23.373Z,101600.06
2023-03-02T02:55:50.108Z,101600.94
2023-03-02T02:56:15.255Z,101594.78
2023-03-02T02:56:39.658Z,101579.81
2023-03-02T02:57:05.334Z,101595.63
2023-03-02T02:57:30.976Z,101596.53
2023-03-02T02:57:56.344Z,101600.06
2023-03-02T02:58:30.060Z,101593.88
2023-03-02T02:58:53.995Z,101596.50
2023-03-02T02:59:20.091Z,101600.91
2023-03-02T02:59:45.759Z,101592.09
2023-03-02T03:00:19.125Z,101601.75
2023-03-02T03:00:42.385Z,101596.50
2023-03-02T03:01:04.872Z,101600.00
2023-03-02T03:01:29.111Z,101599.13
2023-03-02T03:01:52.538Z,101591.22
2023-03-02T03:02:20.840Z,101600.88
2023-03-02T03:02:45.283Z,101592.06
2023-03-02T03:03:30.615Z,101592.09
2023-03-02T03:03:58.936Z,101592.97
2023-03-02T03:04:24.723Z,101597.38
2023-03-02T03:04:47.193Z,101597.38
2023-03-02T03:05:14.475Z,101587.66
2023-03-02T03:05:36.176Z,101600.88
2023-03-02T03:06:00.369Z,101599.09
2023-03-02T03:06:25.832Z,101603.47
2023-03-02T03:06:53.165Z,101598.22
2023-03-02T03:07:20.518Z,101579.75
2023-03-02T03:07:42.407Z,101603.47
2023-03-02T03:08:09.008Z,101584.09
2023-03-02T03:09:01.965Z,101600.81
2023-03-02T03:09:32.740Z,101591.16
2023-03-02T03:10:01.331Z,101585.88
2023-03-02T03:10:29.397Z,101593.78
2023-03-02T03:10:52.342Z,101592.88
2023-03-02T03:11:19.336Z,101592.03
2023-03-02T03:11:43.471Z,101597.31
2023-03-02T03:12:15.063Z,101599.06
2023-03-02T03:12:39.625Z,101593.81
2023-03-02T03:13:02.253Z,101598.19
2023-03-02T03:13:24.178Z,101599.06
2023-03-02T03:13:47.243Z,101599.06
2023-03-02T03:14:12.670Z,101583.25
2023-03-02T03:14:36.858Z,101600.81
2023-03-02T03:15:01.286Z,101590.28
2023-03-02T03:15:23.140Z,101593.81
2023-03-02T03:15:45.976Z,101593.78
2023-03-02T03:16:11.249Z,101595.56
2023-03-02T03:16:33.808Z,101596.41
2023-03-02T03:16:56.347Z,101591.13
2023-03-02T03:17:19.095Z,101591.16
2023-03-02T03:17:48.143Z,101594.66
2023-03-02T03:18:09.783Z,101596.44
2023-03-02T03:18:32.874Z,101599.94
2023-03-02T03:18:56.118Z,101597.28
2023-03-02T03:19:22.926Z,101588.53
2023-03-02T03:19:46.643Z,101596.41
2023-03-02T03:20:09.783Z,101598.16
2023-03-02T03:20:36.364Z,101599.06
2023-03-02T03:20:58.094Z,101591.13
2023-03-02T03:21:20.684Z,101597.31
2023-03-02T03:21:42.460Z,101592.91
2023-03-02T03:22:04.600Z,101603.44
2023-03-02T03:22:30.908Z,101602.56
2023-03-02T03:22:53.376Z,101596.41
2023-03-02T03:23:15.416Z,101595.53
2023-03-02T03:23:38.249Z,101599.94
2023-03-02T03:24:01.329Z,101589.41
2023-03-02T03:24:25.478Z,101593.78
2023-03-02T03:24:47.963Z,101595.53
2023-03-02T03:25:15.617Z,101591.19
2023-03-02T03:25:41.715Z,101596.41
2023-03-02T03:26:05.173Z,101599.94
2023-03-02T03:26:28.213Z,101593.81
2023-03-02T03:26:50.263Z,101574.44
2023-03-02T03:27:15.466Z,101595.56
2023-03-02T03:27:39.038Z,101591.19
2023-03-02T03:28:00.658Z,101587.69
2023-03-02T03:28:22.553Z,101597.31
2023-03-02T03:28:44.409Z,101595.59
2023-03-02T03:29:06.163Z,101591.22
2023-03-02T03:29:30.517Z,101585.06
2023-03-02T03:29:54.987Z,101593.81
2023-03-02T03:30:17.417Z,101585.06
2023-03-02T03:30:39.497Z,101587.69
2023-03-02T03:31:01.352Z,101591.22
2023-03-02T03:31:24.721Z,101585.94
2023-03-02T03:31:46.940Z,101583.31
2023-03-02T03:32:09.243Z,101588.59
2023-03-02T03:32:35.338Z,101565.72
2023-03-02T03:32:57.095Z,101584.19
2023-03-02T03:33:19.724Z,101580.69
2023-03-02T03:33:41.537Z,101578.06
2023-03-02T03:34:03.605Z,101590.31
2023-03-02T03:34:29.917Z,101577.16
2023-03-02T03:34:52.489Z,101580.66
2023-03-02T03:35:21.577Z,101582.41
2023-03-02T03:35:43.305Z,101581.50
2023-03-02T03:36:06.025Z,101578.88
2023-03-02T03:36:30.056Z,101584.16
2023-03-02T03:36:52.246Z,101584.16
2023-03-02T03:37:17.701Z,101593.78
2023-03-02T03:37:41.082Z,101583.28
2023-03-02T03:38:06.023Z,101578.88
2023-03-02T03:38:27.879Z,101585.03
2023-03-02T03:38:49.808Z,101579.75
2023-03-02T03:39:12.582Z,101584.97
2023-03-02T03:39:36.065Z,101577.06
2023-03-02T03:39:58.734Z,101577.09
2023-03-02T03:40:20.581Z,101582.38
2023-03-02T03:40:43.219Z,101580.66
2023-03-02T03:41:06.048Z,101589.41
2023-03-02T03:41:30.165Z,101578.88
2023-03-02T03:41:51.874Z,101583.25
2023-03-02T03:42:13.641Z,101585.03
2023-03-02T03:42:37.268Z,101584.19
2023-03-02T03:42:59.317Z,101583.31
2023-03-02T03:43:21.461Z,101587.69
2023-03-02T03:43:47.098Z,101582.44
2023-03-02T03:44:10.505Z,101566.59
2023-03-02T03:44:34.560Z,101583.28
2023-03-02T03:44:56.381Z,101580.66
2023-03-02T03:45:18.517Z,101585.94
2023-03-02T03:45:40.455Z,101582.41
2023-03-02T03:46:03.815Z,101582.41
2023-03-02T03:46:25.743Z,101591.22
2023-03-02T03:46:47.456Z,101591.22
2023-03-02T03:47:09.149Z,101592.97
2023-03-02T03:47:31.933Z,101578.91
2023-03-02T03:47:54.379Z,101578.03
2023-03-02T03:48:16.147Z,101582.41
2023-03-02T03:48:37.812Z,101580.66
2023-03-02T03:48:59.779Z,101578.88
2023-03-02T03:49:22.460Z,101585.91
2023-03-02T03:49:44.447Z,101583.25
2023-03-02T03:50:06.890Z,101590.28
2023-03-02T03:50:28.784Z,101590.28
2023-03-02T03:50:52.193Z,101584.13
2023-03-02T03:51:14.134Z,101579.72
2023-03-02T03:51:35.887Z,101589.38
2023-03-02T03:51:59.388Z,101589.38
2023-03-02T03:52:30.269Z,101587.63
2023-03-02T03:52:57.183Z,101597.25
2023-03-02T03:53:21.895Z,101584.06
2023-03-02T03:53:43.978Z,101588.47
2023-03-02T03:54:09.386Z,101592.84
2023-03-02T03:54:35.327Z,101589.31
2023-03-02T03:54:57.672Z,101570.81
2023-03-02T03:55:19.861Z,101588.38
2023-03-02T03:55:44.239Z,101586.66
2023-03-02T03:56:06.483Z,101584.00
2023-03-02T03:56:31.811Z,101590.19
2023-03-02T03:56:53.624Z,101580.50
2023-03-02T03:57:16.165Z,101594.56
2023-03-02T03:57:38.309Z,101589.31
2023-03-02T03:58:00.115Z,101591.03
2023-03-02T03:58:21.825Z,101586.66
2023-03-02T03:58:43.713Z,101585.78
2023-03-02T03:59:08.814Z,101586.66
2023-03-02T03:59:36.207Z,101585.78
2023-03-02T03:59:58.766Z,101585.81
2023-03-02T04:00:24.877Z,101585.81
2023-03-02T04:00:57.822Z,101586.72
2023-03-02T04:01:19.951Z,101579.69
2023-03-02T04:01:44.982Z,101577.06
2023-03-02T04:02:07.794Z,101586.72
2023-03-02T04:02:33.057Z,101582.34
2023-03-02T04:02:54.940Z,101591.13
2023-03-02T04:03:20.013Z,101582.28
2023-03-02T04:03:41.658Z,101580.59
2023-03-02T04:04:04.359Z,101581.44
2023-03-02T04:04:28.114Z,101570.81
2023-03-02T04:04:50.260Z,101568.22
2023-03-02T04:05:15.190Z,101586.69
2023-03-02T04:05:36.857Z,101579.69
2023-03-02T04:05:59.787Z,101585.81
2023-03-02T04:06:21.463Z,101577.94
2023-03-02T04:06:44.836Z,101580.59
2023-03-02T04:07:06.683Z,101576.22
2023-03-02T04:07:28.546Z,101588.50
2023-03-02T04:07:50.505Z,101577.97
2023-03-02T04:08:14.087Z,101569.19
2023-03-02T04:08:35.686Z,101578.84
2023-03-02T04:08:58.179Z,101577.97
2023-03-02T04:09:20.049Z,101582.38
2023-03-02T04:09:43.542Z,101577.09
2023-03-02T04:10:09.210Z,101582.34
2023-03-02T04:10:33.052Z,101560.34
2023-03-02T04:10:55.541Z,101584.09
2023-03-02T04:11:18.200Z,101573.56
2023-03-02T04:11:44.845Z,101574.44
2023-03-02T04:12:09.416Z,101582.34
2023-03-02T04:12:35.717Z,101582.38
2023-03-02T04:12:57.924Z,101580.63
2023-03-02T04:13:26.133Z,101580.59
2023-03-02T04:13:48.866Z,101585.88
2023-03-02T04:14:12.705Z,101584.13
2023-03-02T04:14:35.487Z,101583.25
2023-03-02T04:14:58.193Z,101585.88
2023-03-02T04:15:20.398Z,101586.75
2023-03-02T04:15:46.811Z,101577.13
2023-03-02T04:16:09.014Z,101584.16
2023-03-02T04:16:33.068Z,101587.63
2023-03-02T04:16:56.292Z,101578.00
2023-03-02T04:17:18.813Z,101584.13
2023-03-02T04:17:43.500Z,101586.75
2023-03-02T04:18:06.358Z,101580.59
2023-03-02T04:18:29.598Z,101585.84
2023-03-02T04:18:51.220Z,101593.75
2023-03-02T04:19:14.087Z,101584.97
2023-03-02T04:19:37.998Z,101581.44
2023-03-02T04:20:00.395Z,101586.72
2023-03-02T04:20:23.900Z,101587.59
2023-03-02T04:20:48.297Z,101579.69
2023-03-02T04:21:10.905Z,101588.47
2023-03-02T04:21:32.478Z,101547.13
2023-03-02T04:21:54.890Z,101564.72
2023-03-02T04:22:20.019Z,101594.63
2023-03-02T04:22:41.622Z,101588.50
2023-03-02T04:23:05.047Z,101591.09
2023-03-02T04:23:26.792Z,101591.09
2023-03-02T04:23:48.460Z,101589.31
2023-03-02T04:24:10.331Z,101584.03
2023-03-02T04:24:35.261Z,101601.63
2023-03-02T04:24:59.631Z,101585.78
2023-03-02T04:25:23.957Z,101587.56
2023-03-02T04:25:48.760Z,101584.97
2023-03-02T04:26:14.430Z,101588.44
2023-03-02T04:26:37.212Z,101591.94
2023-03-02T04:27:01.241Z,101592.84
2023-03-02T04:27:23.296Z,101584.94
2023-03-02T04:27:45.285Z,101590.19
2023-03-02T04:28:07.091Z,101584.97
2023-03-02T04:28:33.128Z,101578.81
2023-03-02T04:28:54.861Z,101584.94
2023-03-02T04:29:17.936Z,101581.44
2023-03-02T04:29:40.545Z,101576.19
2023-03-02T04:30:04.226Z,101585.84
2023-03-02T04:30:28.148Z,101573.56
2023-03-02T04:30:51.511Z,101579.72
2023-03-02T04:31:13.407Z,101578.84
2023-03-02T04:31:35.362Z,101584.09
2023-03-02T04:31:58.272Z,101580.59
2023-03-02T04:32:21.145Z,101580.59
2023-03-02T04:32:47.887Z,101583.25
2023-03-02T04:33:09.779Z,101579.72
2023-03-02T04:33:32.489Z,101582.34
2023-03-02T04:33:55.367Z,101575.31
2023-03-02T04:34:17.133Z,101584.97
2023-03-02T04:34:40.056Z,101578.84
2023-03-02T04:35:02.902Z,101577.94